Time;durP1;ratioP1;P1;durP2;ratioP2;P2;SDS_P1;SDS_P2;PMS_P1;PMS_P2;Temp;Humidity;BMP_temperature;BMP_pressure;BME280_temperature;BME280_humidity;BME280_pressure;Samples;Min_cycle;Max_cycle;Signal;HPM_P1;HPM_P2
2023/01/07 00:00:24;;;;;;;2.40;2.20;;;;;6.70;94444.00;;;;7397810;19;20165;-85
2023/01/07 00:03:04;;;;;;;1.57;1.00;;;;;6.60;94442.00;;;;7401244;19;20487;-85
2023/01/07 00:05:40;;;;;;;1.07;0.90;;;;;6.40;94437.00;;;;7400305;19;20148;-84
2023/01/07 00:08:08;;;;;;;1.47;1.00;;;;;6.40;94436.00;;;;7401504;19;20125;-85
2023/01/07 00:10:36;;;;;;;1.00;0.90;;;;;6.40;94440.00;;;;7397101;19;20137;-85
2023/01/07 00:13:24;;;;;;;1.30;1.10;;;;;6.40;94442.00;;;;7398627;19;20172;-83
2023/01/07 00:15:56;;;;;;;1.43;1.20;;;;;6.50;94433.00;;;;7399461;19;20141;-84
2023/01/07 00:18:37;;;;;;;2.63;1.13;;;;;6.50;94425.00;;;;7397902;19;20151;-84
2023/01/07 00:21:13;;;;;;;1.20;1.10;;;;;6.40;94416.00;;;;7398127;19;20604;-83
2023/01/07 00:23:48;;;;;;;1.10;1.00;;;;;6.40;94427.00;;;;7405984;19;20125;-85
2023/01/07 00:26:22;;;;;;;1.77;1.50;;;;;6.40;94437.00;;;;7406471;19;20486;-83
2023/01/07 00:29:05;;;;;;;2.83;1.70;;;;;6.40;94416.00;;;;7406895;19;20156;-84
2023/01/07 00:31:36;;;;;;;2.20;1.67;;;;;6.40;94421.00;;;;7405937;19;20216;-85
2023/01/07 00:34:22;;;;;;;2.00;1.70;;;;;6.50;94420.00;;;;7406242;19;20229;-85
2023/01/07 00:37:16;;;;;;;2.53;1.50;;;;;6.30;94420.00;;;;7405515;19;20472;-84
2023/01/07 00:39:47;;;;;;;1.87;1.10;;;;;6.40;94419.00;;;;7405350;19;20145;-84
2023/01/07 00:45:08;;;;;;;2.00;1.30;;;;;6.30;94403.00;;;;7407220;19;20129;-85
2023/01/07 00:47:38;;;;;;;1.40;1.00;;;;;6.30;94406.00;;;;7399762;19;20152;-85
2023/01/07 00:50:06;;;;;;;2.37;1.00;;;;;6.40;94405.00;;;;7397316;19;20145;-83
2023/01/07 00:52:46;;;;;;;0.90;0.90;;;;;6.30;94392.00;;;;7404259;19;20160;-80
2023/01/07 00:55:23;;;;;;;1.60;1.40;;;;;6.40;94399.00;;;;7404343;19;20124;-87
2023/01/07 00:57:57;;;;;;;1.43;1.30;;;;;6.50;94387.00;;;;7405134;19;20149;-86
2023/01/07 01:00:28;;;;;;;2.47;1.40;;;;;6.50;94393.00;;;;7407386;19;20164;-89
2023/01/07 01:03:02;;;;;;;1.27;1.10;;;;;6.50;94399.00;;;;7412932;19;20172;-89
2023/01/07 01:05:37;;;;;;;1.10;1.00;;;;;6.50;94392.00;;;;7415425;19;20249;-89
2023/01/07 01:08:06;;;;;;;1.30;1.10;;;;;6.40;94394.00;;;;7414755;19;20151;-89
2023/01/07 01:10:37;;;;;;;1.50;1.40;;;;;6.60;94397.00;;;;7414230;19;20145;-88
2023/01/07 01:13:25;;;;;;;1.43;1.10;;;;;6.50;94391.00;;;;7414088;19;20180;-89
2023/01/07 01:16:17;;;;;;;1.40;1.13;;;;;6.50;94388.00;;;;7411374;19;20193;-88
2023/01/07 01:18:52;;;;;;;0.80;0.80;;;;;6.50;94375.00;;;;7411819;19;20128;-90
2023/01/07 01:21:19;;;;;;;1.30;0.80;;;;;6.40;94388.00;;;;7413901;19;20132;-89
2023/01/07 01:23:53;;;;;;;1.10;1.00;;;;;6.40;94385.00;;;;7410145;19;20129;-90
2023/01/07 01:26:29;;;;;;;1.50;1.10;;;;;6.40;94383.00;;;;7410401;19;20144;-89
2023/01/07 01:29:03;;;;;;;0.90;0.80;;;;;6.40;94388.00;;;;7409671;19;20141;-89
2023/01/07 01:31:37;;;;;;;1.50;0.90;;;;;6.30;94381.00;;;;7410909;19;20152;-89
2023/01/07 01:34:05;;;;;;;0.87;0.87;;;;;6.30;94377.00;;;;7406573;19;20140;-88
2023/01/07 01:36:33;;;;;;;1.63;1.00;;;;;6.30;94371.00;;;;7410949;19;20157;-90
2023/01/07 01:39:13;;;;;;;1.10;1.00;;;;;6.30;94377.00;;;;7411210;19;20469;-88
2023/01/07 01:41:43;;;;;;;0.90;0.90;;;;;6.40;94377.00;;;;7410237;19;20124;-89
2023/01/07 01:44:51;;;;;;;1.10;1.00;;;;;6.60;94376.00;;;;7412127;19;20145;-88
2023/01/07 01:48:08;;;;;;;1.40;1.20;;;;;6.40;94365.00;;;;7409634;19;20140;-89
2023/01/07 01:50:49;;;;;;;1.90;1.30;;;;;6.60;94368.00;;;;7406105;19;20172;-91
2023/01/07 01:53:28;;;;;;;1.87;1.40;;;;;6.60;94367.00;;;;7408850;19;20177;-90
2023/01/07 01:56:15;;;;;;;1.87;1.27;;;;;6.70;94367.00;;;;7409348;19;20548;-89
2023/01/07 01:59:05;;;;;;;1.10;1.00;;;;;6.50;94365.00;;;;7408194;19;20148;-90
2023/01/07 02:01:47;;;;;;;1.20;1.10;;;;;6.60;94362.00;;;;7407480;19;20152;-89
2023/01/07 02:04:20;;;;;;;1.47;1.20;;;;;6.50;94362.00;;;;7406918;19;20187;-89
2023/01/07 02:07:06;;;;;;;1.60;1.20;;;;;6.50;94361.00;;;;7408085;19;20642;-88
2023/01/07 02:09:33;;;;;;;3.30;1.07;;;;;6.50;94359.00;;;;7409781;19;20542;-90
2023/01/07 02:12:42;;;;;;;1.67;1.50;;;;;6.50;94358.00;;;;7403722;19;20169;-87
2023/01/07 02:15:37;;;;;;;1.87;1.47;;;;;6.40;94359.00;;;;7407177;19;20197;-89
2023/01/07 02:18:18;;;;;;;2.40;1.37;;;;;6.30;94351.00;;;;7406740;19;20145;-90
2023/01/07 02:21:25;;;;;;;1.57;1.40;;;;;6.50;94351.00;;;;7407561;19;20137;-89
2023/01/07 02:24:27;;;;;;;1.60;1.30;;;;;6.40;94346.00;;;;7406829;19;20493;-90
2023/01/07 02:27:20;;;;;;;2.50;1.40;;;;;6.50;94348.00;;;;7406779;19;20153;-89
2023/01/07 02:30:17;;;;;;;1.40;1.30;;;;;6.50;94337.00;;;;7407998;19;20152;-90
2023/01/07 02:33:04;;;;;;;2.20;1.50;;;;;6.50;94339.00;;;;7407686;19;20141;-91
2023/01/07 02:36:16;;;;;;;1.30;1.20;;;;;6.50;94330.00;;;;7407811;19;20165;-90
2023/01/07 02:39:12;;;;;;;1.53;1.10;;;;;6.60;94328.00;;;;7407027;19;20137;-91
2023/01/07 02:42:05;;;;;;;2.17;1.47;;;;;6.60;94321.00;;;;7406400;19;20136;-89
2023/01/07 02:44:52;;;;;;;1.50;1.40;;;;;6.50;94313.00;;;;7408478;19;20194;-89
2023/01/07 02:47:45;;;;;;;1.47;1.27;;;;;6.40;94311.00;;;;7406121;19;20140;-91
2023/01/07 02:50:18;;;;;;;2.90;1.20;;;;;6.40;94308.00;;;;7406408;19;20152;-89
2023/01/07 02:53:09;;;;;;;1.20;1.10;;;;;6.30;94306.00;;;;7406624;19;20133;-90
2023/01/07 02:56:04;;;;;;;1.77;1.47;;;;;6.30;94305.00;;;;7405424;19;20137;-89
2023/01/07 02:58:41;;;;;;;1.13;0.97;;;;;6.30;94295.00;;;;7404777;19;20148;-91
2023/01/07 03:01:36;;;;;;;1.70;1.60;;;;;6.50;94293.00;;;;7403228;19;20148;-90
2023/01/07 03:04:37;;;;;;;2.60;1.30;;;;;6.40;94289.00;;;;7403481;19;20167;-90
2023/01/07 03:07:12;;;;;;;1.87;1.40;;;;;6.40;94288.00;;;;7404078;19;20614;-89
2023/01/07 03:09:55;;;;;;;2.13;1.70;;;;;6.50;94279.00;;;;7407924;19;20148;-91
2023/01/07 03:12:52;;;;;;;1.83;1.40;;;;;6.50;94283.00;;;;7405605;19;20159;-91
2023/01/07 03:16:00;;;;;;;1.97;1.53;;;;;6.50;94285.00;;;;7406210;19;20176;-91
2023/01/07 03:18:34;;;;;;;3.27;1.60;;;;;6.40;94277.00;;;;7405287;19;20124;-91
2023/01/07 03:21:12;;;;;;;2.67;1.70;;;;;6.30;94281.00;;;;7405532;19;20545;-88
2023/01/07 03:23:44;;;;;;;1.63;1.50;;;;;6.50;94271.00;;;;7406539;19;20147;-91
2023/01/07 03:26:28;;;;;;;1.90;1.27;;;;;6.40;94267.00;;;;7404968;19;20151;-89
2023/01/07 03:29:01;;;;;;;1.67;1.50;;;;;6.50;94264.00;;;;7404960;19;20144;-92
2023/01/07 03:31:40;;;;;;;1.67;1.47;;;;;6.30;94271.00;;;;7404947;19;20141;-91
2023/01/07 03:34:11;;;;;;;1.57;1.40;;;;;6.30;94263.00;;;;7402634;19;20648;-90
2023/01/07 03:36:52;;;;;;;1.40;1.30;;;;;6.40;94260.00;;;;7404993;19;20145;-91
2023/01/07 03:39:23;;;;;;;1.43;1.23;;;;;6.20;94268.00;;;;7404079;19;20141;-91
2023/01/07 03:44:45;;;;;;;1.73;1.40;;;;;6.10;94252.00;;;;7405065;19;20139;-90
2023/01/07 03:47:20;;;;;;;1.30;1.20;;;;;6.20;94257.00;;;;7405992;19;20152;-91
2023/01/07 03:49:47;;;;;;;1.27;1.17;;;;;6.20;94261.00;;;;7404374;19;20159;-91
2023/01/07 03:52:21;;;;;;;1.20;1.10;;;;;6.30;94250.00;;;;7403591;19;20169;-90
2023/01/07 03:54:59;;;;;;;1.73;1.30;;;;;6.10;94240.00;;;;7404209;19;20140;-91
2023/01/07 03:57:28;;;;;;;1.33;1.20;;;;;6.10;94239.00;;;;7412713;19;20165;-91
2023/01/07 03:59:55;;;;;;;1.30;1.20;;;;;6.00;94236.00;;;;7411479;19;20132;-91
2023/01/07 04:02:29;;;;;;;1.53;1.30;;;;;6.30;94227.00;;;;7411031;19;20154;-92
2023/01/07 04:04:57;;;;;;;1.87;1.20;;;;;6.20;94229.00;;;;7411663;19;20157;-92
2023/01/07 04:07:25;;;;;;;1.73;1.33;;;;;6.00;94233.00;;;;7412716;19;20159;-90
2023/01/07 04:09:58;;;;;;;1.97;1.30;;;;;6.30;94239.00;;;;7411503;19;20145;-91
2023/01/07 04:12:27;;;;;;;1.97;1.40;;;;;6.20;94231.00;;;;7410020;19;20160;-91
2023/01/07 04:15:02;;;;;;;1.47;1.17;;;;;6.10;94234.00;;;;7408680;19;20696;-91
2023/01/07 04:17:36;;;;;;;1.30;1.03;;;;;6.10;94236.00;;;;7410217;19;20145;-91
2023/01/07 04:20:06;;;;;;;1.40;1.30;;;;;6.10;94228.00;;;;7409951;19;20225;-90
2023/01/07 04:22:34;;;;;;;1.20;1.10;;;;;5.90;94229.00;;;;7409506;19;20137;-89
2023/01/07 04:25:11;;;;;;;1.43;0.90;;;;;6.00;94218.00;;;;7409555;19;20133;-91
2023/01/07 04:27:40;;;;;;;0.90;0.90;;;;;6.10;94218.00;;;;7408438;19;20636;-90
2023/01/07 04:30:09;;;;;;;2.33;0.87;;;;;6.10;94219.00;;;;7411245;19;20173;-91
2023/01/07 04:32:44;;;;;;;1.03;0.87;;;;;6.20;94213.00;;;;7411593;19;20168;-91
2023/01/07 04:35:11;;;;;;;1.10;1.00;;;;;6.00;94207.00;;;;7412637;19;20611;-92
2023/01/07 04:37:39;;;;;;;1.30;1.20;;;;;6.10;94204.00;;;;7412196;19;20145;-93
2023/01/07 04:40:31;;;;;;;1.00;1.00;;;;;6.10;94193.00;;;;7408745;19;20175;-90
2023/01/07 04:43:00;;;;;;;1.40;1.23;;;;;6.10;94192.00;;;;7407948;19;20146;-91
2023/01/07 04:45:34;;;;;;;0.67;0.67;;;;;5.80;94197.00;;;;7406922;19;20144;-90
2023/01/07 04:48:02;;;;;;;1.20;1.10;;;;;5.90;94187.00;;;;7406056;19;20566;-92
2023/01/07 04:50:29;;;;;;;1.10;0.90;;;;;5.80;94192.00;;;;7411055;19;20148;-90
2023/01/07 04:53:05;;;;;;;1.23;0.83;;;;;5.80;94183.00;;;;7409986;19;20627;-91
2023/01/07 04:55:32;;;;;;;1.27;1.17;;;;;6.00;94186.00;;;;7409255;19;20168;-91
2023/01/07 04:58:00;;;;;;;1.17;1.07;;;;;6.00;94193.00;;;;7408774;19;20632;-90
2023/01/07 05:00:36;;;;;;;2.57;1.30;;;;;5.90;94185.00;;;;7410851;19;20476;-89
2023/01/07 05:03:04;;;;;;;1.53;1.43;;;;;6.00;94190.00;;;;7409340;19;20179;-91
2023/01/07 05:05:31;;;;;;;1.77;1.57;;;;;5.80;94179.00;;;;7407202;19;20273;-91
2023/01/07 05:08:06;;;;;;;1.20;1.10;;;;;6.10;94169.00;;;;7408701;19;20148;-91
2023/01/07 05:10:34;;;;;;;1.60;1.33;;;;;5.80;94173.00;;;;7406199;19;20160;-91
2023/01/07 05:13:04;;;;;;;1.30;1.20;;;;;5.70;94168.00;;;;7409051;19;20152;-91
2023/01/07 05:15:47;;;;;;;1.30;1.20;;;;;5.70;94166.00;;;;7409860;19;20160;-91
2023/01/07 05:18:16;;;;;;;1.27;1.17;;;;;5.70;94166.00;;;;7409145;19;20128;-91
2023/01/07 05:20:49;;;;;;;1.77;1.40;;;;;5.60;94168.00;;;;7409281;19;20165;-92
2023/01/07 05:23:17;;;;;;;1.73;1.60;;;;;5.70;94170.00;;;;7407767;19;20221;-90
2023/01/07 05:25:48;;;;;;;1.40;1.30;;;;;5.70;94166.00;;;;7404281;19;20137;-91
2023/01/07 05:28:23;;;;;;;2.50;1.30;;;;;5.60;94163.00;;;;7409116;19;20136;-90
2023/01/07 05:30:56;;;;;;;1.50;1.40;;;;;5.60;94166.00;;;;7407891;19;20153;-91
2023/01/07 05:33:32;;;;;;;1.90;1.70;;;;;5.70;94159.00;;;;7407545;19;20168;-90
2023/01/07 05:36:00;;;;;;;2.27;1.87;;;;;5.80;94160.00;;;;7407416;19;20459;-90
2023/01/07 05:38:28;;;;;;;3.23;1.67;;;;;5.80;94156.00;;;;7409051;19;20137;-90
2023/01/07 05:41:02;;;;;;;2.07;1.87;;;;;5.80;94148.00;;;;7407215;19;20148;-91
2023/01/07 05:43:30;;;;;;;1.90;1.70;;;;;5.80;94147.00;;;;7406993;19;20482;-91
2023/01/07 05:46:06;;;;;;;1.70;1.60;;;;;5.70;94149.00;;;;7404746;19;20147;-90
2023/01/07 05:48:41;;;;;;;3.63;1.60;;;;;5.70;94143.00;;;;7408099;19;20149;-90
2023/01/07 05:51:08;;;;;;;1.80;1.70;;;;;5.70;94138.00;;;;7404749;19;20156;-89
2023/01/07 05:53:39;;;;;;;1.90;1.60;;;;;5.80;94141.00;;;;7408272;19;20462;-89
2023/01/07 05:56:14;;;;;;;1.97;1.77;;;;;5.80;94141.00;;;;7408265;19;20158;-89
2023/01/07 05:58:41;;;;;;;3.03;2.00;;;;;5.70;94136.00;;;;7408762;19;20604;-90
2023/01/07 06:01:09;;;;;;;1.70;1.60;;;;;5.60;94139.00;;;;7404411;19;20148;-91
2023/01/07 06:03:44;;;;;;;2.13;1.90;;;;;5.70;94131.00;;;;7405852;19;20196;-90
2023/01/07 06:06:14;;;;;;;1.90;1.70;;;;;5.80;94117.00;;;;7407609;19;20137;-90
2023/01/07 06:08:41;;;;;;;1.87;1.73;;;;;6.00;94124.00;;;;7408097;19;20128;-90
2023/01/07 06:11:16;;;;;;;3.30;1.90;;;;;6.00;94118.00;;;;7407076;19;20157;-89
2023/01/07 06:13:53;;;;;;;2.10;1.90;;;;;5.90;94116.00;;;;7406793;19;20178;-90
2023/01/07 06:16:32;;;;;;;2.50;2.17;;;;;5.90;94120.00;;;;7405887;19;20162;-88
2023/01/07 06:19:03;;;;;;;2.23;1.80;;;;;5.80;94107.00;;;;7405717;19;20140;-91
2023/01/07 06:21:37;;;;;;;2.00;1.80;;;;;5.70;94119.00;;;;7406694;19;20148;-91
2023/01/07 06:24:06;;;;;;;2.20;1.97;;;;;5.60;94111.00;;;;7404180;19;20151;-91
2023/01/07 06:26:35;;;;;;;2.07;1.70;;;;;5.60;94111.00;;;;7405700;19;20137;-90
2023/01/07 06:29:11;;;;;;;2.00;1.80;;;;;5.80;94114.00;;;;7408397;19;20161;-90
2023/01/07 06:31:38;;;;;;;2.43;2.23;;;;;5.90;94117.00;;;;7405970;19;20485;-89
2023/01/07 06:34:06;;;;;;;2.40;2.20;;;;;5.90;94107.00;;;;7405452;19;20166;-90
2023/01/07 06:36:40;;;;;;;2.20;2.00;;;;;5.70;94112.00;;;;7405022;19;20157;-90
2023/01/07 06:39:11;;;;;;;2.47;1.97;;;;;5.70;94116.00;;;;7404246;19;20154;-88
2023/01/07 06:42:00;;;;;;;2.07;1.87;;;;;5.60;94112.00;;;;7406950;19;20517;-91
2023/01/07 06:44:34;;;;;;;2.40;2.03;;;;;5.60;94106.00;;;;7401667;19;20141;-90
2023/01/07 06:47:02;;;;;;;2.07;1.83;;;;;5.70;94106.00;;;;7405848;19;20528;-92
2023/01/07 06:49:36;;;;;;;1.70;1.60;;;;;5.60;94106.00;;;;7406501;19;20136;-91
2023/01/07 06:52:10;;;;;;;1.90;1.73;;;;;5.50;94107.00;;;;7405001;19;20137;-90
2023/01/07 06:54:38;;;;;;;1.73;1.53;;;;;5.60;94105.00;;;;7404491;19;20145;-89
2023/01/07 06:57:07;;;;;;;1.50;1.40;;;;;5.70;94094.00;;;;7405494;19;20144;-90
2023/01/07 06:59:41;;;;;;;1.73;1.50;;;;;5.70;94104.00;;;;7403762;19;20158;-90
2023/01/07 07:03:05;;;;;;;1.80;1.63;;;;;5.60;94098.00;;;;7404040;19;20151;-89
2023/01/07 07:06:12;;;;;;;1.37;1.27;;;;;5.50;94085.00;;;;7402849;19;20133;-89
2023/01/07 07:09:26;;;;;;;2.10;0.83;;;;;5.50;94100.00;;;;7402159;19;20144;-89
2023/01/07 07:12:00;;;;;;;1.20;1.10;;;;;5.50;94091.00;;;;7405077;19;20144;-90
2023/01/07 07:14:35;;;;;;;1.30;1.20;;;;;5.40;94083.00;;;;7404346;19;20141;-90
2023/01/07 07:17:12;;;;;;;2.47;1.10;;;;;5.50;94088.00;;;;7402846;19;20188;-91
2023/01/07 07:19:39;;;;;;;1.17;0.90;;;;;5.50;94084.00;;;;7404695;19;20137;-89
2023/01/07 07:25:48;;;;;;;1.50;1.17;;;;;5.50;94080.00;;;;7383896;19;20204;-77
2023/01/07 07:28:16;;;;;;;2.30;1.20;;;;;5.40;94078.00;;;;7394339;19;20216;-78
2023/01/07 07:30:50;;;;;;;1.23;1.13;;;;;5.40;94079.00;;;;7394359;19;20155;-78
2023/01/07 07:33:18;;;;;;;1.40;1.30;;;;;5.50;94069.00;;;;7401089;19;20161;-78
2023/01/07 07:35:46;;;;;;;1.20;1.10;;;;;5.50;94064.00;;;;7401609;19;20155;-77
2023/01/07 07:38:20;;;;;;;1.27;1.13;;;;;5.40;94070.00;;;;7400544;19;20218;-78
2023/01/07 07:40:48;;;;;;;1.17;1.10;;;;;5.50;94069.00;;;;7401530;19;20160;-78
2023/01/07 07:43:16;;;;;;;1.17;1.07;;;;;5.30;94058.00;;;;7397970;19;20140;-77
2023/01/07 07:45:51;;;;;;;1.23;1.10;;;;;5.40;94066.00;;;;7400592;19;20587;-78
2023/01/07 07:48:19;;;;;;;1.10;1.00;;;;;5.60;94072.00;;;;7398666;19;20145;-78
2023/01/07 07:50:50;;;;;;;1.37;1.00;;;;;5.40;94062.00;;;;7399836;19;20152;-78
2023/01/07 07:53:25;;;;;;;1.23;1.13;;;;;5.60;94059.00;;;;7398436;19;20160;-78
2023/01/07 07:55:53;;;;;;;1.50;1.40;;;;;5.40;94050.00;;;;7401389;19;20129;-78
2023/01/07 07:58:24;;;;;;;1.50;1.30;;;;;5.60;94052.00;;;;7398269;19;20204;-78
2023/01/07 08:00:59;;;;;;;2.80;1.33;;;;;5.60;94057.00;;;;7400020;19;20605;-78
2023/01/07 08:03:27;;;;;;;1.50;1.40;;;;;5.70;94052.00;;;;7393658;19;20156;-78
2023/01/07 08:05:58;;;;;;;2.43;1.50;;;;;5.50;94061.00;;;;7397931;19;20156;-78
2023/01/07 08:08:32;;;;;;;1.30;1.20;;;;;5.50;94048.00;;;;7399915;19;20814;-78
2023/01/07 08:11:02;;;;;;;2.27;1.30;;;;;5.60;94048.00;;;;7400316;19;20155;-77
2023/01/07 08:13:30;;;;;;;1.80;1.30;;;;;5.60;94050.00;;;;7396045;19;20156;-78
2023/01/07 08:16:04;;;;;;;1.33;1.23;;;;;5.70;94041.00;;;;7399741;19;20170;-78
2023/01/07 08:18:33;;;;;;;1.30;1.20;;;;;5.70;94044.00;;;;7398100;19;20157;-78
2023/01/07 08:21:00;;;;;;;2.13;1.30;;;;;5.80;94036.00;;;;7398665;19;20168;-77
2023/01/07 08:23:49;;;;;;;1.80;1.50;;;;;5.80;94035.00;;;;7397184;19;20153;-78
2023/01/07 08:26:24;;;;;;;1.67;1.53;;;;;5.80;94032.00;;;;7397715;19;20147;-78
2023/01/07 08:28:59;;;;;;;1.57;1.40;;;;;5.70;94037.00;;;;7397339;19;20167;-77
2023/01/07 08:31:28;;;;;;;1.47;1.30;;;;;5.70;94032.00;;;;7400039;19;20147;-78
2023/01/07 08:33:55;;;;;;;1.30;1.20;;;;;5.70;94027.00;;;;7398279;19;20125;-78
2023/01/07 08:36:35;;;;;;;2.67;1.50;;;;;5.80;94031.00;;;;7399605;19;20137;-78
2023/01/07 08:39:03;;;;;;;1.67;1.50;;;;;5.70;94029.00;;;;7396170;19;20153;-79
2023/01/07 08:41:39;;;;;;;1.73;1.37;;;;;5.70;94022.00;;;;7398473;19;20145;-78
2023/01/07 08:44:07;;;;;;;1.53;1.27;;;;;5.70;94024.00;;;;7399226;19;20141;-78
2023/01/07 08:46:35;;;;;;;3.00;1.20;;;;;5.90;94025.00;;;;7400739;19;20160;-78
2023/01/07 08:49:10;;;;;;;1.30;1.20;;;;;5.70;94030.00;;;;7398575;19;20208;-78
2023/01/07 08:51:37;;;;;;;1.43;1.33;;;;;5.70;94035.00;;;;7399556;19;20137;-78
2023/01/07 08:54:05;;;;;;;1.63;1.20;;;;;5.90;94022.00;;;;7395042;19;20568;-78
2023/01/07 08:56:40;;;;;;;1.90;1.43;;;;;5.80;94024.00;;;;7400044;19;20142;-78
2023/01/07 08:59:08;;;;;;;3.43;1.40;;;;;5.80;94029.00;;;;7398208;19;20531;-78
2023/01/07 09:01:36;;;;;;;1.60;1.50;;;;;5.90;94020.00;;;;7398214;19;20631;-78
2023/01/07 09:04:10;;;;;;;2.03;1.20;;;;;6.00;94021.00;;;;7396098;19;20132;-78
2023/01/07 09:06:40;;;;;;;2.00;1.43;;;;;6.20;94020.00;;;;7395151;19;20129;-78
2023/01/07 09:09:09;;;;;;;1.30;1.00;;;;;6.30;94018.00;;;;7396716;19;20159;-78
2023/01/07 09:11:45;;;;;;;2.77;1.20;;;;;6.10;94018.00;;;;7395267;19;20488;-78
2023/01/07 09:14:14;;;;;;;1.40;1.20;;;;;6.20;94021.00;;;;7395317;19;20495;-78
2023/01/07 09:16:42;;;;;;;1.10;1.00;;;;;6.20;94015.00;;;;7389088;19;20640;-77
2023/01/07 09:19:16;;;;;;;1.03;0.93;;;;;6.40;94012.00;;;;7395450;19;20135;-77
2023/01/07 09:21:44;;;;;;;1.13;1.00;;;;;6.40;94008.00;;;;7396283;19;20136;-77
2023/01/07 09:24:12;;;;;;;1.03;0.93;;;;;6.40;94007.00;;;;7389707;19;20180;-77
2023/01/07 09:26:52;;;;;;;0.90;0.90;;;;;6.50;93997.00;;;;7397241;19;20136;-77
2023/01/07 09:29:20;;;;;;;1.27;0.93;;;;;6.60;93994.00;;;;7397084;19;20144;-77
2023/01/07 09:31:54;;;;;;;0.90;0.80;;;;;6.90;93987.00;;;;7394547;19;20153;-77
2023/01/07 09:34:22;;;;;;;1.23;0.97;;;;;7.10;93982.00;;;;7393966;19;20152;-77
2023/01/07 09:36:50;;;;;;;1.00;0.93;;;;;7.20;93988.00;;;;7393961;19;20137;-77
2023/01/07 09:39:24;;;;;;;1.23;1.00;;;;;7.20;93985.00;;;;7395086;19;20131;-77
2023/01/07 09:42:01;;;;;;;0.80;0.80;;;;;7.60;93983.00;;;;7395126;19;20209;-77
2023/01/07 09:44:40;;;;;;;1.00;0.93;;;;;7.70;93986.00;;;;7396330;19;20204;-78
2023/01/07 09:47:10;;;;;;;2.10;0.90;;;;;7.90;93982.00;;;;7395456;19;20511;-78
2023/01/07 09:49:49;;;;;;;1.40;0.90;;;;;8.10;93983.00;;;;7396103;19;20160;-78
2023/01/07 09:52:27;;;;;;;0.90;0.80;;;;;7.90;93981.00;;;;7393339;19;20160;-78
2023/01/07 09:55:10;;;;;;;0.93;0.90;;;;;7.90;93986.00;;;;7392821;19;20409;-78
2023/01/07 09:57:38;;;;;;;0.80;0.80;;;;;7.80;93974.00;;;;7394185;19;20152;-77
2023/01/07 10:00:19;;;;;;;0.97;0.90;;;;;7.90;93974.00;;;;7392699;19;20155;-77
2023/01/07 10:03:13;;;;;;;1.00;0.90;;;;;7.90;93972.00;;;;7393401;19;20148;-77
2023/01/07 10:06:05;;;;;;;1.63;1.20;;;;;7.80;93964.00;;;;7391029;19;20611;-78
2023/01/07 10:08:35;;;;;;;2.08;1.20;;;;;8.00;93962.00;;;;7393333;19;20852;-77
2023/01/07 10:11:29;;;;;;;1.53;1.27;;;;;8.10;93956.00;;;;7393234;19;20155;-77
2023/01/07 10:14:21;;;;;;;2.80;1.20;;;;;8.90;93962.00;;;;7394732;19;20204;-77
2023/01/07 10:17:32;;;;;;;1.30;1.20;;;;;9.00;93950.00;;;;7393932;19;20181;-78
2023/01/07 10:20:03;;;;;;;2.10;1.17;;;;;8.80;93958.00;;;;7389673;19;20132;-76
2023/01/07 10:22:52;;;;;;;1.30;1.17;;;;;8.90;93952.00;;;;7394651;19;20153;-77
2023/01/07 10:25:33;;;;;;;1.35;1.25;;;;;8.60;93943.00;;;;7392191;19;20176;-77
2023/01/07 10:28:24;;;;;;;2.20;1.50;;;;;9.30;93946.00;;;;7391407;19;20160;-78
2023/01/07 10:30:53;;;;;;;1.65;1.40;;;;;9.60;93941.00;;;;7385193;19;20168;-77
2023/01/07 10:33:31;;;;;;;1.52;1.30;;;;;9.60;93943.00;;;;7391869;19;20154;-77
2023/01/07 10:36:24;;;;;;;1.20;1.10;;;;;9.40;93936.00;;;;7389410;19;20144;-77
2023/01/07 10:39:30;;;;;;;3.30;1.52;;;;;9.10;93930.00;;;;7388243;19;20148;-77
2023/01/07 10:42:24;;;;;;;1.85;1.33;;;;;9.00;93926.00;;;;7386846;19;20636;-77
2023/01/07 10:45:31;;;;;;;2.58;1.60;;;;;8.50;93898.00;;;;7384676;19;20196;-77
2023/01/07 10:48:22;;;;;;;1.63;1.47;;;;;8.90;93924.00;;;;7387749;19;20161;-77
2023/01/07 10:51:12;;;;;;;2.50;1.60;;;;;9.10;93907.00;;;;7388881;19;20149;-77
2023/01/07 10:53:58;;;;;;;4.47;2.03;;;;;10.00;93890.00;;;;7383953;19;20189;-78
2023/01/07 10:56:43;;;;;;;2.28;1.75;;;;;10.60;93885.00;;;;7384739;19;20563;-78
2023/01/07 10:59:18;;;;;;;1.98;1.58;;;;;10.10;93892.00;;;;7387128;19;20156;-77
2023/01/07 11:01:55;;;;;;;2.63;1.63;;;;;9.40;93887.00;;;;7387796;19;20145;-77
2023/01/07 11:04:24;;;;;;;1.23;1.15;;;;;9.50;93873.00;;;;7384378;19;20212;-77
2023/01/07 11:07:42;;;;;;;2.40;2.20;;;;;9.40;93879.00;;;;7387721;19;20160;-78
2023/01/07 11:10:30;;;;;;;1.50;1.40;;;;;9.50;93872.00;;;;7386946;19;20635;-78
2023/01/07 11:13:24;;;;;;;1.63;1.48;;;;;9.30;93874.00;;;;7388161;19;20837;-78
2023/01/07 11:16:22;;;;;;;1.88;1.48;;;;;9.40;93870.00;;;;7388116;19;20152;-79
2023/01/07 11:19:10;;;;;;;2.00;1.70;;;;;9.50;93871.00;;;;7388013;19;20128;-78
2023/01/07 11:21:41;;;;;;;1.98;1.70;;;;;9.70;93855.00;;;;7390565;19;20464;-77
2023/01/07 11:24:41;;;;;;;1.70;1.60;;;;;9.90;93837.00;;;;7391423;19;20160;-78
2023/01/07 11:27:18;;;;;;;1.50;1.35;;;;;10.10;93847.00;;;;7389093;19;20136;-76
2023/01/07 11:30:24;;;;;;;3.50;1.83;;;;;11.00;93829.00;;;;7386406;19;20200;-77
2023/01/07 11:33:05;;;;;;;2.00;1.80;;;;;11.30;93839.00;;;;7386112;19;20153;-78
2023/01/07 11:35:54;;;;;;;3.40;1.50;;;;;10.50;93809.00;;;;7391031;19;20208;-78
2023/01/07 11:38:28;;;;;;;2.25;1.77;;;;;12.00;93808.00;;;;7388848;19;20212;-78
2023/01/07 11:41:06;;;;;;;1.70;1.60;;;;;12.20;93817.00;;;;7393289;19;20177;-77
2023/01/07 11:43:50;;;;;;;2.05;1.83;;;;;11.70;93823.00;;;;7391818;19;20732;-77
2023/01/07 11:46:30;;;;;;;3.38;1.67;;;;;11.30;93800.00;;;;7392444;19;20466;-78
2023/01/07 11:49:00;;;;;;;3.65;2.63;;;;;12.90;93790.00;;;;7390964;19;20163;-78
2023/01/07 11:51:40;;;;;;;3.00;2.47;;;;;13.90;93786.00;;;;7393437;19;20603;-76
2023/01/07 11:54:22;;;;;;;2.85;2.53;;;;;14.20;93788.00;;;;7389385;19;20145;-76
2023/01/07 11:57:25;;;;;;;2.83;2.40;;;;;13.60;93781.00;;;;7389470;19;20129;-76
2023/01/07 12:00:16;;;;;;;2.30;2.08;;;;;13.90;93778.00;;;;7388309;19;20157;-76
2023/01/07 12:03:10;;;;;;;2.60;2.03;;;;;14.00;93763.00;;;;7386638;19;20162;-76
2023/01/07 12:05:39;;;;;;;2.03;1.83;;;;;14.40;93758.00;;;;7386789;19;20136;-75
2023/01/07 12:08:21;;;;;;;2.03;1.77;;;;;14.00;93753.00;;;;7387542;19;20474;-76
2023/01/07 12:11:02;;;;;;;1.80;1.70;;;;;13.90;93748.00;;;;7390930;19;20673;-77
2023/01/07 12:13:40;;;;;;;2.13;1.73;;;;;13.60;93743.00;;;;7388995;19;20177;-78
2023/01/07 12:16:09;;;;;;;2.83;2.35;;;;;14.00;93746.00;;;;7390652;19;20169;-78
2023/01/07 12:19:17;;;;;;;2.80;2.10;;;;;14.30;93734.00;;;;7397583;19;20257;-75
2023/01/07 12:21:45;;;;;;;4.55;2.10;;;;;14.00;93735.00;;;;7395201;19;20185;-75
2023/01/07 12:24:36;;;;;;;3.53;2.40;;;;;14.30;93736.00;;;;7396296;19;20148;-76
2023/01/07 12:27:21;;;;;;;3.20;2.70;;;;;14.20;93725.00;;;;7399910;19;20243;-75
2023/01/07 12:30:23;;;;;;;10.73;3.10;;;;;14.60;93724.00;;;;7395529;19;20499;-75
2023/01/07 12:32:57;;;;;;;3.65;2.70;;;;;15.70;93720.00;;;;7399366;19;20160;-74
2023/01/07 12:35:44;;;;;;;2.88;2.50;;;;;15.60;93714.00;;;;7398911;19;20146;-75
2023/01/07 12:38:45;;;;;;;3.10;2.80;;;;;15.70;93719.00;;;;7399591;19;20140;-75
2023/01/07 12:41:28;;;;;;;3.13;2.75;;;;;15.40;93714.00;;;;7398264;19;20137;-75
2023/01/07 12:44:06;;;;;;;3.30;2.88;;;;;14.80;93711.00;;;;7396560;19;20148;-75
2023/01/07 12:47:07;;;;;;;2.95;2.65;;;;;14.80;93697.00;;;;7396028;19;20683;-74
2023/01/07 12:50:02;;;;;;;3.70;2.95;;;;;14.60;93707.00;;;;7399267;19;20464;-73
2023/01/07 12:52:56;;;;;;;4.70;2.80;;;;;13.60;93707.00;;;;7396221;19;20149;-74
2023/01/07 12:55:30;;;;;;;4.43;3.33;;;;;14.00;93697.00;;;;7393613;19;20152;-75
2023/01/07 12:58:43;;;;;;;3.55;3.08;;;;;14.30;93697.00;;;;7391001;19;20160;-74
2023/01/07 13:01:11;;;;;;;4.05;3.25;;;;;13.80;93690.00;;;;7376838;19;20148;-75
2023/01/07 13:04:06;;;;;;;3.28;2.97;;;;;14.30;93694.00;;;;7393402;19;20132;-75
2023/01/07 13:06:56;;;;;;;3.47;3.00;;;;;14.50;93700.00;;;;7394810;19;20160;-74
2023/01/07 13:09:41;;;;;;;4.68;3.47;;;;;14.50;93685.00;;;;7398423;19;20144;-74
2023/01/07 13:12:46;;;;;;;2.95;2.63;;;;;14.20;93688.00;;;;7399675;19;20156;-75
2023/01/07 13:15:25;;;;;;;4.70;3.10;;;;;14.00;93683.00;;;;7397752;19;20133;-75
2023/01/07 13:17:58;;;;;;;4.80;3.30;;;;;13.70;93691.00;;;;7394528;19;20152;-75
2023/01/07 13:21:04;;;;;;;4.40;3.72;;;;;13.90;93685.00;;;;7395411;19;20171;-75
2023/01/07 13:24:01;;;;;;;3.80;3.40;;;;;13.80;93690.00;;;;7395271;19;20144;-75
2023/01/07 13:27:04;;;;;;;3.50;3.20;;;;;14.10;93683.00;;;;7394057;19;20247;-75
2023/01/07 13:29:48;;;;;;;4.63;3.60;;;;;13.70;93678.00;;;;7390880;19;20228;-76
2023/01/07 13:32:26;;;;;;;3.47;3.05;;;;;14.20;93673.00;;;;7394727;19;20159;-76